Paducah, Kentucky
Current Conditions -  °F | °C
As of 7:53 PM on Monday 20 Oct 2014 (Local Time) from KPAH Reporting Station
Clear Clear  
Wind Chill: 59°   Ceiling: Unl
Heat Index: 59°   Visibility: 10mi
Dew Point: 53°   Wind: 0mph
Humidity: 81%   Direction: NA
Pressure: 29.97"   Gusts: NA
Location:  37.09°N, 88.59°W
Report Text: KPAH 210053Z 00000KT 10SM CLR 15/12 A2997 RMK AO2 SLP147 T01500117
Loading
Personal Weather Stations






























Interactive Weather Map New forecast layout! Learn more

10-Day Weather Forecast

Advertisements
Track Severe Weather on mobile